Time;durP1;ratioP1;P1;durP2;ratioP2;P2;SDS_P1;SDS_P2;PMS_P1;PMS_P2;Temp;Humidity;BMP_temperature;BMP_pressure;BME280_temperature;BME280_humidity;BME280_pressure;Samples;Min_cycle;Max_cycle;Signal;HPM_P1;HPM_P2
2021/09/12 00:00:24;;;;;;;8.82;7.53;;;20.50;99.90;;;;;;4993256;28;20213;-67
2021/09/12 00:02:51;;;;;;;10.27;9.25;;;20.40;99.90;;;;;;4994153;28;20216;-67
2021/09/12 00:05:18;;;;;;;9.45;7.78;;;20.30;99.90;;;;;;4994298;28;20209;-67
2021/09/12 00:07:46;;;;;;;9.45;7.72;;;20.20;99.90;;;;;;4993652;28;20275;-67
2021/09/12 00:10:13;;;;;;;9.45;7.93;;;20.20;99.90;;;;;;4993825;28;20209;-67
2021/09/12 00:12:40;;;;;;;8.13;7.32;;;20.30;99.90;;;;;;4992961;28;20555;-67
2021/09/12 00:15:10;;;;;;;8.05;7.28;;;20.30;99.90;;;;;;4993818;28;20606;-67
2021/09/12 00:17:39;;;;;;;8.10;6.57;;;20.20;99.90;;;;;;4992896;28;20251;-67
2021/09/12 00:20:08;;;;;;;7.57;6.90;;;20.20;99.90;;;;;;4993609;28;20205;-67
2021/09/12 00:22:35;;;;;;;7.13;6.40;;;20.10;99.90;;;;;;4992496;28;20237;-67
2021/09/12 00:25:02;;;;;;;12.18;7.03;;;20.10;99.90;;;;;;4993374;28;20625;-68
2021/09/12 00:27:29;;;;;;;8.30;6.68;;;20.10;99.90;;;;;;4992831;28;20209;-68
2021/09/12 00:29:56;;;;;;;7.15;6.47;;;20.00;99.90;;;;;;4993567;28;20204;-68
2021/09/12 00:32:24;;;;;;;6.97;5.65;;;20.00;99.90;;;;;;4993163;28;20212;-67
2021/09/12 00:34:52;;;;;;;7.22;6.63;;;20.00;99.90;;;;;;4992832;28;20229;-68
2021/09/12 00:37:19;;;;;;;8.13;5.88;;;19.90;99.90;;;;;;4993730;28;20209;-67
2021/09/12 00:39:46;;;;;;;7.68;6.85;;;19.90;99.90;;;;;;4993123;28;20209;-67
2021/09/12 00:42:13;;;;;;;8.05;6.32;;;19.90;99.90;;;;;;4993446;28;20217;-67
2021/09/12 00:44:40;;;;;;;8.35;6.20;;;19.90;99.90;;;;;;4992538;28;20225;-67
2021/09/12 00:47:10;;;;;;;9.38;6.35;;;19.90;99.90;;;;;;4992824;28;20216;-67
2021/09/12 00:49:37;;;;;;;7.70;5.68;;;19.80;99.90;;;;;;4992153;28;20271;-68
2021/09/12 00:52:09;;;;;;;6.55;5.35;;;19.70;99.90;;;;;;4990878;28;20672;-67
2021/09/12 00:54:37;;;;;;;8.65;6.15;;;19.80;99.90;;;;;;4992087;28;20268;-67
2021/09/12 00:57:06;;;;;;;6.43;5.80;;;19.70;99.90;;;;;;4992755;28;20209;-68
2021/09/12 00:59:36;;;;;;;7.93;7.13;;;19.70;99.90;;;;;;4992275;28;20204;-68
2021/09/12 01:02:04;;;;;;;7.30;6.60;;;19.70;99.90;;;;;;4992473;28;20630;-67
2021/09/12 01:04:31;;;;;;;7.15;5.97;;;19.70;99.90;;;;;;4991943;28;20254;-67
2021/09/12 01:06:59;;;;;;;7.68;6.32;;;19.70;99.90;;;;;;4992254;28;20260;-67
2021/09/12 01:09:27;;;;;;;5.72;5.22;;;19.70;99.90;;;;;;4992070;28;20268;-67
2021/09/12 01:11:58;;;;;;;9.30;6.22;;;19.70;99.90;;;;;;4992537;28;20205;-67
2021/09/12 01:14:27;;;;;;;7.40;6.47;;;19.70;99.90;;;;;;4991961;28;20762;-67
2021/09/12 01:16:54;;;;;;;6.85;6.18;;;19.70;99.90;;;;;;4992350;28;20275;-68
2021/09/12 01:19:22;;;;;;;7.57;6.78;;;19.70;99.90;;;;;;4991690;28;20212;-68
2021/09/12 01:21:49;;;;;;;9.07;6.43;;;19.60;99.90;;;;;;4992832;28;20209;-68
2021/09/12 01:24:18;;;;;;;6.90;6.30;;;19.60;99.90;;;;;;4992582;28;20267;-68
2021/09/12 01:26:45;;;;;;;6.22;5.63;;;19.60;99.90;;;;;;4992408;28;20209;-68
2021/09/12 01:29:14;;;;;;;9.70;5.63;;;19.60;99.90;;;;;;4992171;28;20599;-69
2021/09/12 01:31:41;;;;;;;7.55;5.82;;;19.50;99.90;;;;;;4991773;28;20204;-68
2021/09/12 01:34:08;;;;;;;7.40;6.60;;;19.50;99.90;;;;;;4991749;28;20213;-68
2021/09/12 01:36:35;;;;;;;8.10;6.07;;;19.50;99.90;;;;;;4992022;28;20205;-68
2021/09/12 01:39:03;;;;;;;7.18;5.43;;;19.50;99.90;;;;;;4991931;28;20209;-68
2021/09/12 01:41:31;;;;;;;5.65;5.13;;;19.40;99.90;;;;;;4991496;28;20209;-68
2021/09/12 01:44:00;;;;;;;8.27;5.72;;;19.40;99.90;;;;;;4991922;28;20205;-67
2021/09/12 01:46:28;;;;;;;7.63;6.10;;;19.40;99.90;;;;;;4991206;28;20665;-67
2021/09/12 01:48:57;;;;;;;8.98;6.10;;;19.40;99.90;;;;;;4991858;28;20209;-67
2021/09/12 01:51:24;;;;;;;7.50;6.32;;;19.40;99.90;;;;;;4991052;28;20209;-68
2021/09/12 01:53:51;;;;;;;10.15;6.38;;;19.40;99.90;;;;;;4991791;28;20208;-67
2021/09/12 01:56:18;;;;;;;5.32;4.82;;;19.40;99.90;;;;;;4991977;28;20232;-67
2021/09/12 01:58:47;;;;;;;5.45;5.00;;;19.40;99.90;;;;;;4992018;28;20271;-67
2021/09/12 02:01:14;;;;;;;8.57;5.97;;;19.30;99.90;;;;;;4991724;28;20247;-67
2021/09/12 02:03:41;;;;;;;10.55;5.72;;;19.30;99.90;;;;;;4990742;28;20680;-67
2021/09/12 02:06:08;;;;;;;6.35;5.65;;;19.30;99.90;;;;;;4991714;28;20657;-66
2021/09/12 02:08:35;;;;;;;7.93;5.88;;;19.30;99.90;;;;;;4990879;28;20271;-67
2021/09/12 02:11:02;;;;;;;6.05;5.10;;;19.20;99.90;;;;;;4991520;28;20243;-67
2021/09/12 02:13:29;;;;;;;5.47;4.88;;;19.20;99.90;;;;;;4990937;28;20205;-67
2021/09/12 02:15:57;;;;;;;6.60;5.35;;;19.20;99.90;;;;;;4991458;28;20287;-67
2021/09/12 02:18:24;;;;;;;8.32;5.60;;;19.10;99.90;;;;;;4990888;28;20205;-67
2021/09/12 02:20:51;;;;;;;8.00;5.40;;;19.20;99.90;;;;;;4991542;28;20255;-67
2021/09/12 02:23:18;;;;;;;5.65;5.15;;;19.10;99.90;;;;;;4991618;28;20216;-66
2021/09/12 02:25:45;;;;;;;8.00;6.07;;;19.10;99.90;;;;;;4991437;28;20204;-67
2021/09/12 02:28:12;;;;;;;7.85;5.60;;;19.10;99.90;;;;;;4991228;28;20625;-67
2021/09/12 02:30:39;;;;;;;9.32;6.25;;;19.10;99.90;;;;;;4990850;28;20205;-67
2021/09/12 02:33:08;;;;;;;8.50;5.65;;;19.10;99.90;;;;;;4991096;28;20296;-67
2021/09/12 02:35:35;;;;;;;6.13;5.53;;;19.10;99.90;;;;;;4990749;28;20232;-67
2021/09/12 02:38:02;;;;;;;6.47;5.72;;;19.00;99.90;;;;;;4991260;28;20209;-68
2021/09/12 02:40:29;;;;;;;5.70;5.20;;;19.00;99.90;;;;;;4990495;28;20240;-68
2021/09/12 02:42:56;;;;;;;6.90;5.50;;;18.90;99.90;;;;;;4991193;28;20811;-68
2021/09/12 02:45:23;;;;;;;6.82;5.88;;;18.90;99.90;;;;;;4990625;28;20221;-68
2021/09/12 02:47:50;;;;;;;7.57;6.25;;;18.90;99.90;;;;;;4991170;28;20276;-68
2021/09/12 02:50:18;;;;;;;7.13;6.43;;;19.00;99.90;;;;;;4991337;28;20205;-67
2021/09/12 02:52:45;;;;;;;10.63;6.53;;;19.00;99.90;;;;;;4991434;28;20278;-67
2021/09/12 02:55:12;;;;;;;10.85;5.65;;;19.00;99.90;;;;;;4990969;28;20593;-68
2021/09/12 02:57:39;;;;;;;6.80;5.93;;;18.90;99.90;;;;;;4990670;28;20639;-67
2021/09/12 03:00:08;;;;;;;6.43;5.70;;;18.90;99.90;;;;;;4990770;28;20212;-68
2021/09/12 03:02:35;;;;;;;9.18;5.60;;;18.90;99.90;;;;;;4990799;28;20200;-68
2021/09/12 03:05:02;;;;;;;6.47;5.78;;;18.90;99.90;;;;;;4993589;28;20624;-68
2021/09/12 03:07:30;;;;;;;8.13;5.55;;;18.90;99.90;;;;;;4994456;28;20217;-67
2021/09/12 03:09:57;;;;;;;10.68;6.10;;;18.80;99.90;;;;;;4994582;28;20213;-68
2021/09/12 03:12:24;;;;;;;7.18;6.38;;;18.80;99.90;;;;;;4994653;28;20205;-68
2021/09/12 03:14:51;;;;;;;6.00;5.35;;;18.80;99.90;;;;;;4994440;28;20259;-68
2021/09/12 03:17:18;;;;;;;6.00;5.40;;;18.70;99.90;;;;;;4994986;28;20210;-68
2021/09/12 03:19:45;;;;;;;9.20;5.65;;;18.60;99.90;;;;;;4995000;28;20213;-67
2021/09/12 03:22:12;;;;;;;7.20;6.15;;;18.70;99.90;;;;;;4994442;28;20259;-68
2021/09/12 03:24:40;;;;;;;7.40;6.55;;;18.70;99.90;;;;;;4994502;28;20259;-67
2021/09/12 03:27:08;;;;;;;9.57;8.68;;;18.80;99.90;;;;;;4994287;28;20677;-67
2021/09/12 03:29:35;;;;;;;21.55;19.27;;;18.80;99.90;;;;;;4993672;28;20208;-67
2021/09/12 03:32:02;;;;;;;26.15;22.77;;;18.80;99.90;;;;;;4994159;28;20268;-67
2021/09/12 03:34:29;;;;;;;37.83;33.00;;;18.70;99.90;;;;;;4994150;28;20209;-68
2021/09/12 03:36:56;;;;;;;36.47;32.60;;;18.70;99.90;;;;;;4994424;28;20308;-67
2021/09/12 03:39:23;;;;;;;45.00;40.20;;;18.60;99.90;;;;;;4993897;28;20259;-68
2021/09/12 03:41:51;;;;;;;42.92;38.42;;;18.70;99.90;;;;;;4994592;28;20263;-68
2021/09/12 03:44:18;;;;;;;46.17;40.97;;;18.60;99.90;;;;;;4993976;28;20271;-68
2021/09/12 03:46:45;;;;;;;45.22;40.15;;;18.60;99.90;;;;;;4994627;28;20272;-68
2021/09/12 03:49:12;;;;;;;44.55;39.65;;;18.60;99.90;;;;;;4993757;28;20217;-68
2021/09/12 03:51:39;;;;;;;42.47;38.30;;;18.60;99.90;;;;;;4993804;28;20665;-68
2021/09/12 03:54:06;;;;;;;40.50;35.78;;;18.60;99.90;;;;;;4994055;28;20637;-68
2021/09/12 03:56:33;;;;;;;38.83;34.75;;;18.50;99.90;;;;;;4993855;28;20233;-68
2021/09/12 03:59:01;;;;;;;35.55;31.70;;;18.60;99.90;;;;;;4993639;28;20263;-68
2021/09/12 04:01:28;;;;;;;28.77;25.17;;;18.60;99.90;;;;;;4993462;28;20213;-68
2021/09/12 04:03:55;;;;;;;25.63;23.02;;;18.60;99.90;;;;;;4993890;28;20212;-68
2021/09/12 04:06:22;;;;;;;14.27;12.93;;;18.50;99.90;;;;;;4993359;28;20570;-68
2021/09/12 04:08:49;;;;;;;14.90;12.43;;;18.50;99.90;;;;;;4993704;28;20275;-68
2021/09/12 04:11:16;;;;;;;16.27;11.40;;;18.60;99.90;;;;;;4994123;28;20279;-67
2021/09/12 04:13:43;;;;;;;11.60;10.48;;;18.50;99.90;;;;;;4993004;28;20208;-68
2021/09/12 04:16:12;;;;;;;10.70;8.55;;;18.50;99.90;;;;;;4993336;28;20240;-68
2021/09/12 04:18:39;;;;;;;12.30;8.23;;;18.40;99.90;;;;;;4992889;28;20622;-68
2021/09/12 04:21:06;;;;;;;7.72;7.00;;;18.40;99.90;;;;;;4993496;28;20255;-68
2021/09/12 04:23:33;;;;;;;8.10;5.78;;;18.40;99.90;;;;;;4993157;28;20248;-68
2021/09/12 04:26:00;;;;;;;6.25;5.65;;;18.40;99.90;;;;;;4993434;28;20212;-68
2021/09/12 04:28:27;;;;;;;9.27;7.20;;;18.40;99.90;;;;;;4992804;28;20209;-68
2021/09/12 04:30:55;;;;;;;10.05;6.22;;;18.30;99.90;;;;;;4993193;28;20305;-68
2021/09/12 04:33:24;;;;;;;9.52;5.72;;;18.40;99.90;;;;;;4992876;28;20635;-69
2021/09/12 04:35:51;;;;;;;7.07;6.38;;;18.40;99.90;;;;;;4992995;28;20225;-68
2021/09/12 04:38:18;;;;;;;6.53;6.05;;;18.40;99.90;;;;;;4993679;28;20629;-68
2021/09/12 04:40:45;;;;;;;6.95;6.18;;;18.30;99.90;;;;;;4992927;28;20251;-68
2021/09/12 04:43:12;;;;;;;7.90;5.53;;;18.30;99.90;;;;;;4992916;28;20204;-68
2021/09/12 04:45:39;;;;;;;6.85;5.22;;;18.30;99.90;;;;;;4992130;28;20220;-68
2021/09/12 04:48:06;;;;;;;7.00;5.88;;;18.30;99.90;;;;;;4992990;28;20668;-68
2021/09/12 04:50:34;;;;;;;8.48;6.53;;;18.30;99.90;;;;;;4992701;28;20259;-68
2021/09/12 04:53:01;;;;;;;7.22;6.53;;;18.30;99.90;;;;;;4992593;28;20263;-69
2021/09/12 04:55:28;;;;;;;7.03;6.03;;;18.30;99.90;;;;;;4992267;28;20295;-68
2021/09/12 04:57:55;;;;;;;8.65;7.65;;;18.30;99.90;;;;;;4992529;28;20205;-68
2021/09/12 05:00:22;;;;;;;10.93;7.47;;;18.30;99.90;;;;;;4992538;28;20205;-67
2021/09/12 05:02:50;;;;;;;10.38;8.23;;;18.30;99.90;;;;;;4990337;28;20282;-68
2021/09/12 05:05:17;;;;;;;11.45;6.85;;;18.30;99.90;;;;;;4988835;28;20205;-68
2021/09/12 05:07:45;;;;;;;14.70;8.90;;;18.30;99.90;;;;;;4992156;28;20664;-68
2021/09/12 05:10:12;;;;;;;8.00;6.95;;;18.20;99.90;;;;;;4992428;28;20208;-68
2021/09/12 05:12:39;;;;;;;8.80;7.40;;;18.20;99.90;;;;;;4991466;28;20726;-68
2021/09/12 05:15:07;;;;;;;7.85;7.15;;;18.10;99.90;;;;;;4992122;28;20212;-67
2021/09/12 05:17:35;;;;;;;9.38;7.82;;;18.10;99.90;;;;;;4991748;28;20255;-68
2021/09/12 05:20:02;;;;;;;12.48;11.23;;;18.10;99.90;;;;;;4992222;28;20702;-68
2021/09/12 05:22:29;;;;;;;22.42;20.15;;;18.20;99.90;;;;;;4983914;28;20205;-67
2021/09/12 05:24:58;;;;;;;26.10;23.60;;;18.20;99.90;;;;;;4992002;28;20271;-67
2021/09/12 05:27:25;;;;;;;34.78;31.13;;;18.20;99.90;;;;;;4991045;28;20208;-68
2021/09/12 05:29:52;;;;;;;57.55;52.33;;;18.20;99.90;;;;;;4992337;28;20280;-68
2021/09/12 05:32:19;;;;;;;57.95;52.50;;;18.20;99.90;;;;;;4992148;28;20213;-68
2021/09/12 05:34:46;;;;;;;56.92;51.85;;;18.30;99.90;;;;;;4991995;28;20213;-68
2021/09/12 05:37:13;;;;;;;58.17;52.53;;;18.30;99.90;;;;;;4991979;28;20236;-68
2021/09/12 05:39:40;;;;;;;53.17;48.05;;;18.30;99.90;;;;;;4990171;28;20704;-69
2021/09/12 05:42:09;;;;;;;41.22;37.33;;;18.30;99.90;;;;;;4987771;28;21046;-69
2021/09/12 05:44:36;;;;;;;36.53;32.92;;;18.30;99.90;;;;;;4985789;28;20213;-69
2021/09/12 05:47:03;;;;;;;35.22;31.80;;;18.30;99.90;;;;;;4990245;28;20208;-69
2021/09/12 05:49:30;;;;;;;25.83;20.75;;;18.30;99.90;;;;;;4989902;28;20205;-69
2021/09/12 05:51:57;;;;;;;33.38;25.15;;;18.40;99.90;;;;;;4982807;28;20267;-70
2021/09/12 05:54:24;;;;;;;31.58;28.35;;;18.80;99.90;;;;;;4990862;28;20263;-68
2021/09/12 05:56:51;;;;;;;49.83;38.58;;;18.70;99.90;;;;;;4990904;28;20725;-68
2021/09/12 05:59:19;;;;;;;42.03;38.05;;;18.80;99.90;;;;;;4991649;28;20213;-69
2021/09/12 06:01:46;;;;;;;24.02;21.70;;;18.80;99.90;;;;;;4991981;28;20209;-69
2021/09/12 06:04:13;;;;;;;25.60;23.13;;;18.90;99.90;;;;;;4991755;28;20263;-68
2021/09/12 06:06:40;;;;;;;15.57;14.07;;;19.00;99.90;;;;;;4991043;28;20267;-68
2021/09/12 06:09:07;;;;;;;14.27;12.20;;;19.00;99.90;;;;;;4991258;28;20685;-69
2021/09/12 06:11:34;;;;;;;11.32;9.15;;;19.10;99.90;;;;;;4991232;28;20271;-68
2021/09/12 06:14:01;;;;;;;7.82;6.85;;;19.20;99.90;;;;;;4991765;28;20204;-68
2021/09/12 06:16:30;;;;;;;9.60;7.65;;;19.00;99.90;;;;;;4991226;28;20287;-69
2021/09/12 06:18:57;;;;;;;9.05;6.72;;;19.10;99.90;;;;;;4991365;28;20217;-68
2021/09/12 06:21:24;;;;;;;8.45;7.68;;;19.20;99.90;;;;;;4990620;28;20653;-69
2021/09/12 06:23:51;;;;;;;9.88;6.82;;;19.40;99.90;;;;;;4990726;28;20236;-68
2021/09/12 06:26:18;;;;;;;14.13;8.18;;;19.40;99.90;;;;;;4991893;28;20209;-69
2021/09/12 06:28:45;;;;;;;7.60;6.80;;;19.50;99.90;;;;;;4991511;28;20209;-69
2021/09/12 06:31:12;;;;;;;9.20;7.70;;;19.50;99.90;;;;;;4991324;28;20255;-69
2021/09/12 06:33:41;;;;;;;8.77;7.32;;;19.60;99.90;;;;;;4990628;28;20685;-69
2021/09/12 06:36:08;;;;;;;8.45;7.20;;;19.60;99.90;;;;;;4980415;28;20747;-69
2021/09/12 06:38:35;;;;;;;8.95;6.53;;;19.60;99.90;;;;;;4990373;28;20209;-69
2021/09/12 06:41:02;;;;;;;12.13;7.22;;;19.70;99.90;;;;;;4989091;28;20580;-68
2021/09/12 06:43:29;;;;;;;11.00;7.40;;;19.70;99.90;;;;;;4990714;28;20634;-68
2021/09/12 06:45:56;;;;;;;8.40;6.53;;;19.50;99.90;;;;;;4990867;28;20216;-68
2021/09/12 06:48:23;;;;;;;8.90;6.57;;;19.50;99.90;;;;;;4990218;28;20634;-68
2021/09/12 06:50:53;;;;;;;8.65;6.72;;;19.40;99.90;;;;;;4990428;28;20213;-69
2021/09/12 06:53:20;;;;;;;11.38;7.10;;;19.50;99.90;;;;;;4989890;28;20204;-69
2021/09/12 06:55:47;;;;;;;8.40;7.60;;;19.60;99.90;;;;;;4989891;28;20672;-68
2021/09/12 06:58:16;;;;;;;9.10;7.32;;;19.60;99.90;;;;;;4990880;28;20565;-68
2021/09/12 07:00:43;;;;;;;12.98;7.30;;;19.60;99.90;;;;;;4990442;28;20205;-68
2021/09/12 07:03:10;;;;;;;14.25;8.48;;;19.70;99.90;;;;;;4990424;28;20726;-68
2021/09/12 07:05:37;;;;;;;9.95;7.63;;;19.70;99.90;;;;;;4990345;28;20750;-68
2021/09/12 07:08:06;;;;;;;8.30;7.35;;;19.80;99.90;;;;;;4990626;28;20275;-69
2021/09/12 07:10:33;;;;;;;9.77;8.88;;;20.10;99.90;;;;;;4990202;28;20630;-69
2021/09/12 07:13:00;;;;;;;9.07;7.95;;;20.10;99.90;;;;;;4990754;28;20665;-69
2021/09/12 07:15:27;;;;;;;12.23;7.95;;;20.00;99.90;;;;;;4988011;28;20680;-68
2021/09/12 07:17:54;;;;;;;10.10;9.05;;;19.90;99.90;;;;;;4990765;28;20236;-69
2021/09/12 07:20:21;;;;;;;15.45;8.60;;;20.00;99.90;;;;;;4988230;28;20212;-69
2021/09/12 07:22:48;;;;;;;13.48;8.07;;;20.00;99.90;;;;;;4990486;28;20260;-69
2021/09/12 07:25:16;;;;;;;11.63;9.70;;;20.10;99.90;;;;;;4989382;28;20212;-69
2021/09/12 07:27:43;;;;;;;10.27;7.95;;;20.20;99.90;;;;;;4989066;28;20665;-69
2021/09/12 07:30:12;;;;;;;11.63;8.95;;;20.30;99.90;;;;;;4990337;28;20213;-69
2021/09/12 07:32:39;;;;;;;10.73;8.60;;;20.40;99.90;;;;;;4989407;28;20620;-68
2021/09/12 07:35:07;;;;;;;13.25;9.02;;;20.40;99.90;;;;;;4989543;28;20221;-69
2021/09/12 07:37:34;;;;;;;10.68;9.02;;;20.50;99.90;;;;;;4989754;28;20667;-69
2021/09/12 07:40:01;;;;;;;10.15;7.68;;;20.40;99.90;;;;;;4990717;28;20212;-69
2021/09/12 07:42:29;;;;;;;12.52;8.30;;;20.50;99.90;;;;;;4989846;28;20212;-69
2021/09/12 07:44:56;;;;;;;9.40;8.35;;;20.60;99.90;;;;;;4990798;28;20209;-69
2021/09/12 07:47:23;;;;;;;10.57;8.32;;;20.70;99.90;;;;;;4990105;28;20213;-69
2021/09/12 07:49:50;;;;;;;8.63;7.15;;;20.80;99.90;;;;;;4990301;28;20259;-69
2021/09/12 07:52:17;;;;;;;7.45;6.80;;;21.10;99.90;;;;;;4994427;28;20209;-68
2021/09/12 07:54:44;;;;;;;14.20;7.80;;;21.30;99.90;;;;;;4993221;28;20209;-68
2021/09/12 07:57:11;;;;;;;11.77;7.72;;;21.50;99.90;;;;;;4993959;28;20233;-68
2021/09/12 07:59:39;;;;;;;7.88;7.07;;;21.50;99.90;;;;;;4993180;28;20204;-68
2021/09/12 08:02:06;;;;;;;9.80;7.15;;;21.70;99.90;;;;;;4993489;28;20263;-68
2021/09/12 08:04:33;;;;;;;11.40;7.32;;;21.80;99.90;;;;;;4992090;28;20263;-69
2021/09/12 08:07:00;;;;;;;11.68;8.38;;;21.80;99.90;;;;;;4991467;28;20209;-69
2021/09/12 08:09:28;;;;;;;6.80;5.68;;;21.80;99.90;;;;;;4992291;28;20197;-69
2021/09/12 08:11:55;;;;;;;12.82;7.88;;;21.90;99.90;;;;;;4992168;28;20213;-69
2021/09/12 08:14:22;;;;;;;10.02;6.03;;;22.10;99.90;;;;;;4992705;28;20259;-69
2021/09/12 08:16:51;;;;;;;5.82;4.93;;;22.30;99.90;;;;;;4993084;28;20284;-69
2021/09/12 08:19:18;;;;;;;5.50;5.00;;;22.50;99.90;;;;;;4991111;28;20213;-69
2021/09/12 08:21:45;;;;;;;6.10;5.50;;;22.60;99.90;;;;;;4993886;28;20208;-69
2021/09/12 08:24:12;;;;;;;5.70;5.20;;;22.50;99.90;;;;;;4989051;28;20205;-69
2021/09/12 08:26:39;;;;;;;7.85;4.82;;;22.60;99.90;;;;;;4992470;28;20212;-69
2021/09/12 08:29:06;;;;;;;5.18;4.65;;;22.80;99.90;;;;;;4992888;28;20664;-69
2021/09/12 08:31:33;;;;;;;6.15;4.78;;;23.00;99.90;;;;;;4993078;28;20205;-69
2021/09/12 08:34:02;;;;;;;6.65;4.45;;;23.00;99.90;;;;;;4992094;28;20331;-69
2021/09/12 08:36:28;;;;;;;5.30;4.80;;;23.20;99.90;;;;;;4992619;28;20256;-69
2021/09/12 08:38:56;;;;;;;4.53;4.07;;;23.40;99.90;;;;;;4987140;28;20208;-68
2021/09/12 08:41:23;;;;;;;5.10;3.72;;;23.40;99.90;;;;;;4991417;28;20707;-68
2021/09/12 08:43:50;;;;;;;4.43;4.03;;;23.20;99.90;;;;;;4990893;28;20629;-67
2021/09/12 08:46:18;;;;;;;5.72;4.10;;;23.30;99.90;;;;;;4991665;28;20205;-66
2021/09/12 08:48:46;;;;;;;7.15;3.50;;;23.30;99.90;;;;;;4991674;28;20280;-66
2021/09/12 08:51:14;;;;;;;5.43;3.67;;;23.50;99.90;;;;;;4993875;28;20256;-66
2021/09/12 08:53:41;;;;;;;4.88;3.45;;;23.90;99.90;;;;;;4992722;28;20271;-67
2021/09/12 08:56:08;;;;;;;4.55;4.13;;;24.00;99.90;;;;;;4992697;28;20262;-67
2021/09/12 08:58:37;;;;;;;7.68;3.97;;;24.30;99.90;;;;;;4992382;28;20594;-66
2021/09/12 09:01:04;;;;;;;3.88;3.47;;;24.80;99.90;;;;;;4991657;28;20209;-66
2021/09/12 09:03:35;;;;;;;4.30;2.65;;;25.00;99.90;;;;;;4991461;28;20260;-66
2021/09/12 09:06:12;;;;;;;2.70;2.50;;;24.90;99.90;;;;;;4992126;28;20223;-66
2021/09/12 09:08:51;;;;;;;3.00;2.42;;;24.90;99.90;;;;;;4991835;28;20772;-67
2021/09/12 09:11:29;;;;;;;3.03;2.75;;;25.10;99.90;;;;;;4993000;28;20680;-67
2021/09/12 09:13:56;;;;;;;2.88;2.67;;;26.20;99.90;;;;;;4992525;28;20205;-69
2021/09/12 09:16:28;;;;;;;2.72;2.53;;;26.50;99.90;;;;;;4991865;28;20209;-69
2021/09/12 09:19:03;;;;;;;3.28;2.83;;;27.20;99.90;;;;;;4992130;28;20232;-69
2021/09/12 09:21:32;;;;;;;6.63;3.55;;;27.30;99.90;;;;;;4992295;28;20208;-69
2021/09/12 09:24:12;;;;;;;3.47;2.97;;;26.90;99.90;;;;;;4992253;28;20668;-69
2021/09/12 09:26:41;;;;;;;2.90;2.70;;;26.60;99.90;;;;;;4991918;28;20212;-69
2021/09/12 09:29:09;;;;;;;3.78;2.40;;;27.10;99.90;;;;;;4992192;28;20204;-69
2021/09/12 09:31:36;;;;;;;3.63;2.67;;;28.70;99.90;;;;;;4991847;28;20303;-69
2021/09/12 09:34:17;;;;;;;3.35;3.05;;;28.60;99.90;;;;;;4992295;28;20205;-69
2021/09/12 09:36:44;;;;;;;4.28;2.85;;;28.20;99.90;;;;;;4991850;28;20208;-69
2021/09/12 09:39:13;;;;;;;2.72;2.50;;;27.70;99.90;;;;;;4991120;28;20209;-70
2021/09/12 09:41:40;;;;;;;3.05;2.75;;;28.60;99.90;;;;;;4992029;28;20216;-69
2021/09/12 09:44:13;;;;;;;2.88;2.53;;;28.40;99.90;;;;;;4991909;28;20267;-69
2021/09/12 09:46:43;;;;;;;3.70;3.15;;;26.70;99.90;;;;;;4991325;28;20738;-69
2021/09/12 09:49:22;;;;;;;4.05;2.83;;;26.10;99.90;;;;;;4991664;28;20298;-69
2021/09/12 09:51:51;;;;;;;3.30;2.38;;;26.50;99.90;;;;;;4992084;28;20212;-69
2021/09/12 09:54:20;;;;;;;3.83;3.13;;;27.20;99.90;;;;;;4991960;28;20221;-69
2021/09/12 09:56:48;;;;;;;2.53;2.33;;;27.50;99.90;;;;;;4992038;28;20341;-68
2021/09/12 09:59:16;;;;;;;3.80;2.50;;;27.00;99.90;;;;;;4992018;28;20208;-69
2021/09/12 10:01:46;;;;;;;4.70;2.55;;;28.90;99.90;;;;;;4990922;28;20291;-69
2021/09/12 10:04:14;;;;;;;2.97;2.75;;;28.20;99.90;;;;;;4991477;28;20240;-69
2021/09/12 10:06:43;;;;;;;4.90;4.28;;;28.20;99.90;;;;;;4990996;28;20737;-67
2021/09/12 10:09:12;;;;;;;4.15;3.33;;;28.80;99.90;;;;;;4991702;28;20839;-67
2021/09/12 10:11:42;;;;;;;4.63;2.85;;;29.70;99.90;;;;;;4990993;28;20291;-67
2021/09/12 10:14:13;;;;;;;4.55;2.88;;;28.40;99.90;;;;;;4991157;28;20727;-67
2021/09/12 10:16:41;;;;;;;4.55;3.17;;;28.50;99.90;;;;;;4990798;28;20263;-66
2021/09/12 10:19:08;;;;;;;2.95;2.72;;;28.00;99.90;;;;;;4991665;28;20317;-67
2021/09/12 10:21:35;;;;;;;4.05;2.90;;;29.20;99.90;;;;;;4991093;28;20211;-67
2021/09/12 10:24:05;;;;;;;4.30;3.22;;;32.40;99.90;;;;;;4988757;28;20204;-67
2021/09/12 10:26:35;;;;;;;8.38;2.97;;;33.00;99.90;;;;;;4988243;28;20294;-66
2021/09/12 10:29:04;;;;;;;2.55;2.35;;;29.90;99.90;;;;;;4987531;28;20653;-67
2021/09/12 10:31:36;;;;;;;3.83;2.42;;;28.70;99.90;;;;;;4989077;28;20201;-67
2021/09/12 10:34:11;;;;;;;3.20;2.70;;;27.90;99.90;;;;;;4991139;28;20294;-69
2021/09/12 10:36:39;;;;;;;2.85;2.55;;;27.40;99.90;;;;;;4990722;28;20206;-70
2021/09/12 10:39:35;;;;;;;5.22;4.75;;;27.30;99.90;;;;;;4990906;28;20327;-69
2021/09/12 10:42:21;;;;;;;3.30;3.10;;;27.50;99.90;;;;;;4991273;28;20217;-69
2021/09/12 10:45:20;;;;;;;6.10;2.88;;;27.40;99.90;;;;;;4979187;28;20204;-69
2021/09/12 10:47:48;;;;;;;4.30;2.75;;;27.50;99.90;;;;;;4991161;28;20223;-69
2021/09/12 10:50:44;;;;;;;3.67;2.38;;;27.10;99.90;;;;;;4991298;28;20311;-69
2021/09/12 10:53:12;;;;;;;2.63;2.42;;;27.30;99.90;;;;;;4996486;28;20746;-69
2021/09/12 10:55:58;;;;;;;2.70;2.50;;;27.20;99.90;;;;;;4990931;28;20208;-69
2021/09/12 10:58:27;;;;;;;2.45;2.22;;;27.40;99.90;;;;;;4978353;28;20232;-69
2021/09/12 11:00:56;;;;;;;2.90;2.60;;;27.30;99.90;;;;;;4991096;28;20641;-69
2021/09/12 11:03:23;;;;;;;3.53;2.30;;;27.20;99.90;;;;;;4990263;28;20212;-69
2021/09/12 11:05:50;;;;;;;2.10;1.90;;;27.00;99.90;;;;;;4991158;28;20213;-69
2021/09/12 11:08:17;;;;;;;2.47;2.28;;;27.30;99.90;;;;;;4991093;28;20276;-69
2021/09/12 11:10:47;;;;;;;2.20;2.00;;;27.70;99.90;;;;;;4990576;28;20633;-69
2021/09/12 11:13:22;;;;;;;3.05;1.70;;;27.50;99.90;;;;;;4990818;28;20248;-69
2021/09/12 11:15:49;;;;;;;1.85;1.75;;;27.60;99.90;;;;;;4991348;28;20278;-69
2021/09/12 11:18:17;;;;;;;4.18;2.90;;;27.60;99.90;;;;;;4991053;28;20798;-70
2021/09/12 11:20:46;;;;;;;2.58;2.00;;;27.30;99.90;;;;;;4990204;28;20640;-69
2021/09/12 11:23:28;;;;;;;3.33;2.90;;;27.40;99.90;;;;;;4990707;28;20209;-70
2021/09/12 11:25:58;;;;;;;2.17;1.98;;;27.40;99.90;;;;;;5000123;28;20292;-69
2021/09/12 11:28:31;;;;;;;2.80;2.08;;;27.40;99.90;;;;;;4994267;28;20208;-69
2021/09/12 11:30:59;;;;;;;2.35;2.10;;;27.70;99.90;;;;;;4994496;28;20263;-70
2021/09/12 11:33:52;;;;;;;3.83;2.25;;;27.70;99.90;;;;;;4994201;28;20292;-69
2021/09/12 11:36:19;;;;;;;2.10;1.98;;;27.70;99.90;;;;;;4983012;28;20300;-69
2021/09/12 11:38:55;;;;;;;1.98;1.88;;;27.70;99.90;;;;;;4994602;28;20699;-69
2021/09/12 11:41:23;;;;;;;2.65;2.33;;;27.50;99.90;;;;;;4981724;28;20292;-70
2021/09/12 11:43:55;;;;;;;2.60;2.30;;;27.60;99.90;;;;;;4993958;28;20739;-70
2021/09/12 11:46:23;;;;;;;3.33;2.03;;;27.50;99.90;;;;;;4980757;28;20201;-69
2021/09/12 11:48:55;;;;;;;3.92;3.53;;;27.60;99.90;;;;;;4994056;28;20259;-69
2021/09/12 11:51:31;;;;;;;2.10;1.98;;;27.70;99.90;;;;;;4993372;28;20204;-69
2021/09/12 11:54:05;;;;;;;2.40;2.20;;;27.70;99.90;;;;;;4994118;28;20572;-69
2021/09/12 11:56:32;;;;;;;1.88;1.67;;;27.30;99.90;;;;;;4980059;28;20251;-69
2021/09/12 11:59:01;;;;;;;2.67;2.13;;;27.80;99.90;;;;;;4993958;28;20275;-69
2021/09/12 12:01:28;;;;;;;4.20;2.25;;;28.20;99.90;;;;;;4993085;28;20208;-69
2021/09/12 12:03:58;;;;;;;2.67;2.47;;;28.00;99.90;;;;;;4994180;28;20213;-69
2021/09/12 12:06:25;;;;;;;1.95;1.80;;;28.10;99.90;;;;;;4993596;28;20259;-69
2021/09/12 12:09:07;;;;;;;2.50;2.30;;;28.10;99.90;;;;;;4993538;28;20755;-69
2021/09/12 12:11:36;;;;;;;3.30;2.20;;;28.10;99.90;;;;;;4993105;28;20208;-69
2021/09/12 12:14:03;;;;;;;4.53;2.30;;;28.20;99.90;;;;;;4994011;28;20232;-69
2021/09/12 12:16:39;;;;;;;2.13;1.50;;;28.00;99.90;;;;;;4993180;28;20634;-69
2021/09/12 12:19:10;;;;;;;2.50;2.30;;;28.10;99.90;;;;;;4979972;28;20229;-69
2021/09/12 12:21:39;;;;;;;2.67;1.90;;;28.20;99.90;;;;;;4993129;28;20209;-70
2021/09/12 12:24:10;;;;;;;2.75;2.40;;;28.20;99.90;;;;;;4993431;28;20211;-69
2021/09/12 12:26:42;;;;;;;2.13;2.03;;;28.10;99.90;;;;;;4993194;28;20260;-69
2021/09/12 12:29:09;;;;;;;2.20;1.80;;;28.30;99.90;;;;;;4993062;28;20220;-70
2021/09/12 12:31:38;;;;;;;2.80;2.38;;;28.40;99.90;;;;;;4993340;28;20209;-69
2021/09/12 12:34:05;;;;;;;2.63;2.42;;;28.50;99.90;;;;;;4993160;28;20205;-70
2021/09/12 12:36:34;;;;;;;2.85;2.28;;;28.10;99.90;;;;;;4992947;28;20263;-69
2021/09/12 12:39:14;;;;;;;3.70;2.30;;;28.10;99.90;;;;;;4993225;28;20240;-69
2021/09/12 12:41:55;;;;;;;2.83;2.50;;;28.40;99.90;;;;;;4992492;28;20204;-69
2021/09/12 12:44:23;;;;;;;2.00;1.77;;;28.50;99.90;;;;;;4992748;28;20201;-70
2021/09/12 12:46:52;;;;;;;2.28;2.08;;;28.30;99.90;;;;;;4992842;28;20692;-69
2021/09/12 12:49:27;;;;;;;3.42;2.58;;;28.10;99.90;;;;;;4993277;28;20213;-69